• Join FlightAware (Why Join?)
  • Login
  • US Flag 
07:29AM EDT


 

Airport Tracker/Info


-or-


 

Live Flight TrackerFlight Track Log ✈ FLG3735 ✈ 11-Jun-2013 ✈ KDTW - KALB

Flight Track Log - Related Links

Times and Time Zones

All times are in EDT time to prevent confusion due to time zone crossing. See the FLG3735 flight status page for this flight to view local times or setup timezone preferences in your user account.

Time Position Orientation Groundspeed Altitude Reporting Facility
EDT Latitude Longitude Course Direction KTS MPH feet Rate Location/Type
10:18PM 42.2036 -83.3556 71° East 145 167 1,300  Level Cleveland Center
10:19PM 42.1808 -83.3517 173° South 172 198 2,300 1,800 Climbing Cleveland Center
10:20PM 42.1317 -83.3217 156° South 234 269 4,300 2,040 Climbing Cleveland Center
10:21PM 42.1422 -83.2211 82° East 298 343 6,500 2,100 Climbing Cleveland Center
10:22PM 42.3199 -82.7180 82° East  Level FlightAware Approximate
10:22PM 42.1608 -83.1378 73° East 299 344 8,100  Level Cleveland Center
10:23PM 42.3399 -82.5573 71° East  Level FlightAware Approximate
10:23PM 42.1900 -83.0381 68° East 319 367 10,600  Level Cleveland Center
10:24PM 42.2239 -82.9217 69° East 324 373 12,300 1,500 Climbing Cleveland Center
10:25PM 42.2575 -82.7939 70° East 339 390 13,700 1,380 Climbing Cleveland Center
10:26PM 42.2561 -82.6478 91° East 353 406 15,100 1,260 Climbing Cleveland Center
10:27PM 42.2547 -82.4964 91° East 380 437 16,300 1,200 Climbing Cleveland Center
10:28PM 42.2531 -82.3392 91° East 399 459 17,500 1,200 Climbing Cleveland Center
10:29PM 42.2533 -82.1764 90° East 413 475 18,800 1,260 Climbing Cleveland Center
10:30PM 42.2511 -82.0136 91° East 427 491 20,100 1,200 Climbing Cleveland Center
10:31PM 42.2511 -81.8483 90° East 432 497 21,300 1,200 Climbing Cleveland Center
10:32PM 42.2508 -81.6686 90° East 439 505 22,600 1,200 Climbing Cleveland Center
10:33PM 42.2481 -81.5058 91° East 434 499 23,800 1,020 Climbing Cleveland Center
10:34PM 42.2450 -81.3433 91° East 439 505 24,700 780 Climbing Cleveland Center
10:35PM 42.2419 -81.1694 91° East 451 519 25,400 660 Climbing Cleveland Center
10:36PM 42.2386 -80.9956 91° East 460 529 26,100 660 Climbing Cleveland Center
10:37PM 42.2369 -80.8214 91° East 460 529 26,800 420 Climbing Cleveland Center
10:38PM 42.2331 -80.6450 92° East 460 529 27,000 60 Climbing Cleveland Center
10:39PM 42.2289 -80.4794 92° East 467 537 27,000  Level Cleveland Center
10:40PM 42.2222 -80.2917 93° East 487 560 27,000  Level Cleveland Center
10:41PM 42.2175 -80.1008 92° East 497 572 27,000  Level Cleveland Center
10:42PM 42.2122 -79.9103 92° East 497 572 27,000  Level Cleveland Center
10:43PM 42.2069 -79.7197 92° East 502 578 27,000  Level Cleveland Center
10:44PM 42.2011 -79.5264 92° East 502 578 27,000  Level Cleveland Center
10:45PM 42.1969 -79.3331 92° East 507 583 27,000  Level Cleveland Center
10:46PM 42.1886 -79.1428 93° East 507 583 27,000  Level Cleveland Center
10:47PM 42.2089 -78.9461 82° East 522 601 27,000  Level Cleveland Center
10:48PM 42.2372 -78.7433 79° East 513 590 27,000  Level Cleveland Center
10:49PM 42.2611 -78.5547 80° East 507 583 27,000  Level Cleveland Center
10:50PM 42.2847 -78.3658 80° East 507 583 27,000  Level Cleveland Center
10:51PM 42.3081 -78.1769 80° East 507 583 27,000  Level Cleveland Center
10:52PM 42.3292 -78.0047 81° East 507 583 27,000  Level Cleveland Center
10:54PM 42.3794 -77.5453 81° East 518 596 27,000  Level Boston Center
10:55PM 42.4022 -77.3558 81° East 518 596 27,000  Level Boston Center
10:56PM 42.4228 -77.1689 81° East 518 596 27,000  Level Boston Center
10:57PM 42.4450 -76.9847 81° East 512 589 27,000  Level Boston Center
10:58PM 42.4650 -76.7919 82° East 512 589 27,000  Level Boston Center
10:59PM 42.4847 -76.6017 82° East 512 589 27,000  Level Boston Center
11:00PM 42.5058 -76.4144 81° East 512 589 27,000  Level Boston Center
11:01PM 42.5217 -76.2633 82° East 512 589 27,000 -540 Level Boston Center
11:02PM 42.5431 -76.0503 82° East 512 589 26,000 -1,020 Descending Boston Center
11:03PM 42.5614 -75.8625 82° East 512 589 25,000 -1,320 Descending Boston Center
11:04PM 42.5797 -75.6689 83° East 512 589 23,400 -1,800 Descending Boston Center
11:05PM 42.5992 -75.4922 81° East 505 581 21,500 -1,860 Descending Boston Center
11:06PM 42.6139 -75.3264 83° East 468 539 19,700 -1,860 Descending Boston Center
11:07PM 42.6283 -75.1633 83° East 443 510 17,800 -2,040 Descending Boston Center
11:08PM 42.6428 -74.9889 84° East 432 497 15,700 -1,740 Descending Boston Center
11:09PM 42.6558 -74.8625 82° East 426 490 14,400 -1,680 Descending Boston Center
11:10PM 42.6669 -74.7303 83° East 409 471 13,000 -1,920 Descending Boston Center
11:10PM 42.6703 -74.6767 85° East 416 479 12,500 -1,440 Descending Boston Center
11:11PM 42.6706 -74.5411 90° East 401 461 11,100 -900 Descending Boston Center
11:12PM 42.6528 -74.3794 98° East 396 456 10,700 -900 Descending Boston Center
11:13PM 42.6400 -74.2719 99° East 353 406 9,300 -1,620 Descending Boston Center
11:14PM 42.6231 -74.1444 100° East 315 362 7,500 -1,800 Descending Boston Center
11:15PM 42.6083 -74.0228 99° East 303 349 5,600 -1,860 Descending Boston Center
11:16PM 42.5950 -73.9264 101° East 299 344 3,800 -2,040 Descending Boston Center